Main page
METAR-TAF:

METAR-TAF

Airports :

Kuwait International Airport

Kuwait City, Kuwait

latitude: 29-13N, longitude: 047-59E, elevation: 55 m

Current weather observation

The report was made 1 hour and 10 minutes ago, at 08:00 UTC
Wind 5 kt from the North/Northwest
Temperature 44°C
Humidity 13%
Pressure 1004 hPa
Visibility: 7000 m
Clear sky

METAR: OKBK 210800Z 34005KT 7000 SKC 44/09 Q1004 NOSIG

Time: 12:10 (09:10 UTC)

Forecast

The report was made 4 hours and 25 minutes ago, at 04:45 UTC
Forecast valid from 21 at 06 UTC to 22 at 12 UTC
Wind 10 kt from the North
Visibility: 7000 m
Clear sky
Temporary
from 21 at 06 UTC to 21 at 12 UTC
Wind 3 kt from variable directions

TAF: OKBK 210445Z 2106/2212 36010KT 7000 SKC TEMPO 2106/2112 VRB03KT

Weather observations and forecasts of more than 4000 airports (METAR and TAF reports).

The available stations are represented by yellow and red dots on the map.

Hover mouse over dot to see the name of the station.

Then click to see weather observations and forecasts.

To change the map : click on the green buttons with a black cross to zoom in, on the green button with a dash to zoom out, or on the green arrows for adjacent maps.


METAR-TAF: